createdAt,value
2022-09-20T00:01:16.147Z,14.68
2022-09-20T00:03:48.327Z,14.62
2022-09-20T00:06:18.366Z,14.61
2022-09-20T00:08:45.904Z,14.63
2022-09-20T00:11:21.549Z,14.63
2022-09-20T00:13:50.364Z,14.62
2022-09-20T00:16:39.581Z,14.59
2022-09-20T00:19:07.622Z,14.58
2022-09-20T00:21:36.334Z,14.47
2022-09-20T00:24:03.561Z,14.42
2022-09-20T00:26:30.337Z,14.48
2022-09-20T00:28:58.494Z,14.48
2022-09-20T00:31:25.284Z,14.47
2022-09-20T00:34:13.850Z,14.45
2022-09-20T00:36:40.653Z,14.46
2022-09-20T00:39:07.448Z,14.48
2022-09-20T00:41:34.233Z,14.47
2022-09-20T00:44:01.815Z,14.37
2022-09-20T00:46:44.631Z,14.26
2022-09-20T00:49:18.549Z,14.16
2022-09-20T00:51:49.625Z,14.16
2022-09-20T00:54:20.825Z,14.12
2022-09-20T00:56:48.762Z,14.08
2022-09-20T00:59:22.982Z,14.08
2022-09-20T01:01:53.799Z,14.10
2022-09-20T01:04:23.611Z,14.13
2022-09-20T01:06:54.002Z,14.05
2022-09-20T01:09:20.746Z,14.14
2022-09-20T01:11:48.433Z,14.16
2022-09-20T01:14:17.070Z,14.18
2022-09-20T01:16:43.932Z,14.23
2022-09-20T01:19:22.196Z,14.28
2022-09-20T01:21:48.928Z,14.28
2022-09-20T01:24:18.558Z,14.24
2022-09-20T01:27:03.610Z,14.24
2022-09-20T01:30:06.963Z,14.24
2022-09-20T01:32:51.615Z,14.16
2022-09-20T01:35:21.318Z,14.21
2022-09-20T01:38:12.741Z,14.15
2022-09-20T01:41:38.100Z,14.11
2022-09-20T01:44:11.084Z,14.11
2022-09-20T01:46:38.196Z,14.08
2022-09-20T01:49:10.623Z,14.10
2022-09-20T01:52:03.333Z,14.03
2022-09-20T01:55:07.428Z,14.00
2022-09-20T01:57:59.560Z,14.05
2022-09-20T02:00:39.139Z,14.09
2022-09-20T02:03:49.104Z,14.09
2022-09-20T02:06:43.534Z,14.05
2022-09-20T02:09:22.420Z,13.94
2022-09-20T02:12:19.523Z,13.85
2022-09-20T02:14:55.219Z,13.82
2022-09-20T02:17:33.851Z,13.76
2022-09-20T02:20:09.710Z,13.80
2022-09-20T02:23:16.202Z,13.81
2022-09-20T02:26:19.985Z,13.71
2022-09-20T02:29:12.825Z,13.65
2022-09-20T02:31:45.715Z,13.66
2022-09-20T02:34:50.972Z,13.73
2022-09-20T02:37:20.674Z,13.74
2022-09-20T02:39:47.522Z,13.82
2022-09-20T02:42:49.715Z,13.94
2022-09-20T02:45:21.599Z,14.01
2022-09-20T02:47:48.478Z,14.01
2022-09-20T02:50:30.147Z,13.97
2022-09-20T02:53:35.400Z,14.06
2022-09-20T02:56:21.052Z,14.09
2022-09-20T02:59:26.785Z,14.08
2022-09-20T03:02:40.105Z,14.11
2022-09-20T03:05:27.580Z,14.21
2022-09-20T03:08:18.469Z,14.26
2022-09-20T03:10:49.399Z,14.33
2022-09-20T03:13:31.217Z,14.33
2022-09-20T03:16:05.447Z,14.39
2022-09-20T03:18:47.182Z,14.40
2022-09-20T03:21:32.311Z,14.45
2022-09-20T03:24:29.097Z,14.50
2022-09-20T03:27:35.290Z,14.53
2022-09-20T03:30:34.545Z,14.52
2022-09-20T03:33:13.914Z,14.60
2022-09-20T03:36:17.270Z,14.59
2022-09-20T03:38:59.016Z,14.64
2022-09-20T03:42:01.109Z,14.64
2022-09-20T03:44:43.763Z,14.60
2022-09-20T03:47:19.215Z,14.62
2022-09-20T03:50:24.454Z,14.68
2022-09-20T03:53:01.930Z,14.70
2022-09-20T03:55:44.025Z,14.71
2022-09-20T03:58:22.522Z,14.77
2022-09-20T04:01:16.248Z,14.76
2022-09-20T04:04:18.613Z,14.65
2022-09-20T04:07:09.905Z,14.60
2022-09-20T04:09:47.659Z,14.54
2022-09-20T04:12:39.267Z,14.57
2022-09-20T04:15:22.236Z,14.57
2022-09-20T04:18:07.723Z,14.64
2022-09-20T04:20:43.794Z,14.66
2022-09-20T04:23:33.591Z,14.60
2022-09-20T04:26:02.223Z,14.62
2022-09-20T04:28:39.574Z,14.63
2022-09-20T04:31:23.148Z,14.66
2022-09-20T04:33:53.437Z,14.60
2022-09-20T04:36:34.166Z,14.63
2022-09-20T04:39:07.191Z,14.67
2022-09-20T04:42:08.547Z,14.69
2022-09-20T04:44:55.796Z,14.76
2022-09-20T04:47:42.365Z,14.82
2022-09-20T04:50:19.304Z,14.86
2022-09-20T04:53:21.628Z,14.87
2022-09-20T04:56:14.503Z,14.81
2022-09-20T04:58:49.034Z,14.77
2022-09-20T05:01:42.629Z,14.76
2022-09-20T05:04:57.699Z,14.76
2022-09-20T05:08:02.141Z,14.79
2022-09-20T05:10:34.909Z,14.84
2022-09-20T05:13:28.057Z,14.87
2022-09-20T05:16:00.993Z,14.75
2022-09-20T05:18:47.908Z,14.74
2022-09-20T05:21:20.496Z,14.73
2022-09-20T05:24:24.314Z,14.79
2022-09-20T05:27:09.313Z,14.92
2022-09-20T05:30:28.323Z,15.02
2022-09-20T05:33:15.149Z,15.10
2022-09-20T05:36:03.907Z,15.19
2022-09-20T05:38:47.562Z,15.19
2022-09-20T05:41:20.602Z,15.12
2022-09-20T05:44:14.098Z,15.17
2022-09-20T05:47:00.148Z,15.16
2022-09-20T05:49:55.561Z,15.06
2022-09-20T05:52:46.851Z,15.07
2022-09-20T05:55:19.763Z,15.11
2022-09-20T05:57:56.375Z,15.21
2022-09-20T06:00:29.010Z,15.27
2022-09-20T06:03:17.623Z,15.44
2022-09-20T06:05:59.571Z,15.77
2022-09-20T06:09:21.800Z,15.97
2022-09-20T06:12:14.346Z,16.05
2022-09-20T06:15:00.030Z,16.03
2022-09-20T06:17:47.593Z,16.02
2022-09-20T06:20:56.435Z,15.99
2022-09-20T06:23:23.431Z,15.97
2022-09-20T06:25:57.618Z,16.26
2022-09-20T06:28:29.021Z,16.49
2022-09-20T06:30:57.260Z,16.67
2022-09-20T06:33:28.883Z,16.70
2022-09-20T06:36:31.853Z,16.66
2022-09-20T06:40:19.388Z,16.67
2022-09-20T06:42:46.061Z,16.61
2022-09-20T06:45:12.822Z,16.49
2022-09-20T06:47:40.343Z,16.48
2022-09-20T06:50:07.437Z,16.53
2022-09-20T06:52:35.602Z,16.46
2022-09-20T06:55:07.330Z,16.45
2022-09-20T06:57:37.834Z,16.40
2022-09-20T07:00:11.231Z,16.36
2022-09-20T07:02:38.134Z,16.46
2022-09-20T07:05:07.439Z,16.43
2022-09-20T07:07:34.087Z,16.43
2022-09-20T07:10:00.799Z,16.37
2022-09-20T07:12:33.415Z,16.44
2022-09-20T07:15:00.161Z,16.52
2022-09-20T07:17:26.855Z,16.45
2022-09-20T07:19:53.536Z,16.44
2022-09-20T07:22:20.289Z,16.57
2022-09-20T07:24:48.190Z,16.65
2022-09-20T07:27:14.961Z,16.69
2022-09-20T07:29:41.729Z,16.82
2022-09-20T07:32:08.526Z,16.93
2022-09-20T07:37:19.394Z,16.93
2022-09-20T07:39:46.295Z,17.08
2022-09-20T07:42:13.303Z,17.23
2022-09-20T07:44:42.265Z,17.54
2022-09-20T07:47:11.114Z,17.64
2022-09-20T07:49:37.783Z,17.57
2022-09-20T07:52:04.838Z,17.52
2022-09-20T07:54:31.676Z,17.61
2022-09-20T07:56:58.424Z,17.82
2022-09-20T07:59:25.932Z,17.84
2022-09-20T08:01:52.666Z,18.17
2022-09-20T08:04:20.749Z,18.52
2022-09-20T08:06:47.450Z,18.64
2022-09-20T08:09:14.433Z,18.52
2022-09-20T08:11:42.769Z,18.42
2022-09-20T08:14:16.223Z,18.69
2022-09-20T08:16:48.255Z,18.73
2022-09-20T08:19:21.077Z,18.79
2022-09-20T08:21:48.741Z,19.11
2022-09-20T08:24:17.144Z,19.36
2022-09-20T08:26:44.629Z,19.58
2022-09-20T08:29:11.706Z,19.65
2022-09-20T08:31:42.132Z,19.63
2022-09-20T08:34:11.625Z,20.07
2022-09-20T08:36:46.648Z,21.11
2022-09-20T08:42:04.418Z,23.49
2022-09-20T08:44:45.255Z,23.74
2022-09-20T08:47:22.111Z,23.81
2022-09-20T08:49:56.893Z,24.45
2022-09-20T08:52:37.022Z,25.39
2022-09-20T08:55:22.994Z,27.61
2022-09-20T08:57:52.966Z,29.37
2022-09-20T09:00:26.034Z,31.75
2022-09-20T09:02:57.159Z,32.16
2022-09-20T09:05:54.164Z,30.97
2022-09-20T09:08:26.147Z,29.14
2022-09-20T09:10:57.467Z,28.16
2022-09-20T09:13:27.398Z,27.33
2022-09-20T09:16:11.392Z,26.72
2022-09-20T09:18:42.044Z,26.10
2022-09-20T09:21:16.833Z,25.71
2022-09-20T09:24:11.116Z,25.33
2022-09-20T09:26:43.365Z,24.72
2022-09-20T09:29:22.044Z,24.46
2022-09-20T09:31:51.733Z,23.96
2022-09-20T09:34:30.569Z,23.55
2022-09-20T09:36:58.362Z,23.17
2022-09-20T09:39:31.534Z,23.03
2022-09-20T09:42:02.302Z,22.82
2022-09-20T09:44:33.990Z,22.75
2022-09-20T09:47:01.307Z,22.41
2022-09-20T09:49:34.125Z,22.09
2022-09-20T09:52:26.770Z,21.81
2022-09-20T09:55:02.183Z,21.57
2022-09-20T09:57:51.956Z,21.80
2022-09-20T10:00:22.670Z,22.34
2022-09-20T10:02:58.519Z,22.89
2022-09-20T10:05:32.979Z,23.31
2022-09-20T10:08:20.921Z,23.47
2022-09-20T10:10:47.539Z,23.79
2022-09-20T10:13:33.485Z,23.91
2022-09-20T10:16:07.213Z,24.30
2022-09-20T10:19:01.760Z,25.20
2022-09-20T10:21:50.858Z,26.96
2022-09-20T10:24:38.647Z,27.94
2022-09-20T10:27:49.157Z,27.84
2022-09-20T10:30:20.929Z,27.45
2022-09-20T10:33:06.461Z,26.38
2022-09-20T10:35:57.330Z,25.85
2022-09-20T10:38:31.965Z,25.36
2022-09-20T10:41:30.804Z,25.40
2022-09-20T10:44:20.694Z,24.95
2022-09-20T10:47:00.178Z,25.57
2022-09-20T10:49:53.598Z,25.36
2022-09-20T10:52:57.097Z,25.47
2022-09-20T10:55:25.453Z,26.09
2022-09-20T10:57:55.603Z,26.28
2022-09-20T11:00:42.160Z,25.83
2022-09-20T11:03:42.122Z,25.46
2022-09-20T11:06:27.632Z,25.07
2022-09-20T11:08:59.435Z,24.82
2022-09-20T11:11:32.865Z,24.44
2022-09-20T11:14:10.665Z,24.17
2022-09-20T11:16:44.692Z,23.66
2022-09-20T11:19:11.372Z,23.19
2022-09-20T11:21:44.518Z,22.96
2022-09-20T11:24:27.920Z,22.34
2022-09-20T11:27:00.783Z,22.03
2022-09-20T11:29:32.364Z,21.64
2022-09-20T11:32:13.759Z,21.37
2022-09-20T11:34:51.811Z,21.21
2022-09-20T11:37:19.329Z,21.11
2022-09-20T11:39:55.680Z,21.20
2022-09-20T11:42:36.706Z,21.14
2022-09-20T11:45:04.161Z,21.11
2022-09-20T11:47:53.209Z,21.30
2022-09-20T11:50:45.187Z,21.47
2022-09-20T11:53:33.246Z,21.78
2022-09-20T11:56:05.589Z,21.68
2022-09-20T11:58:48.180Z,21.66
2022-09-20T12:01:28.325Z,21.39
2022-09-20T12:04:32.985Z,21.15
2022-09-20T12:07:11.489Z,21.05
2022-09-20T12:09:45.151Z,20.94
2022-09-20T12:12:16.812Z,20.68
2022-09-20T12:14:54.908Z,20.39
2022-09-20T12:17:46.484Z,20.27
2022-09-20T12:20:32.626Z,20.05
2022-09-20T12:23:37.117Z,20.02
2022-09-20T12:26:06.893Z,19.77
2022-09-20T12:28:39.600Z,19.36
2022-09-20T12:31:18.657Z,18.86
2022-09-20T12:33:56.408Z,18.72
2022-09-20T12:36:24.034Z,18.69
2022-09-20T12:39:30.132Z,18.68
2022-09-20T12:42:09.399Z,18.92
2022-09-20T12:44:51.357Z,19.13
2022-09-20T12:47:20.490Z,19.28
2022-09-20T12:50:05.850Z,19.37
2022-09-20T12:52:50.857Z,19.34
2022-09-20T12:55:27.047Z,19.53
2022-09-20T12:58:06.523Z,19.98
2022-09-20T13:01:00.980Z,20.42
2022-09-20T13:03:44.332Z,20.43
2022-09-20T13:06:14.890Z,20.32
2022-09-20T13:08:50.076Z,20.55
2022-09-20T13:11:20.211Z,20.93
2022-09-20T13:13:51.805Z,21.23
2022-09-20T13:16:24.015Z,21.41
2022-09-20T13:19:00.065Z,21.51
2022-09-20T13:21:27.884Z,21.58
2022-09-20T13:23:55.322Z,21.97
2022-09-20T13:26:30.088Z,21.85
2022-09-20T13:28:59.263Z,22.00
2022-09-20T13:31:32.821Z,21.97
2022-09-20T13:34:14.058Z,22.17
2022-09-20T13:36:41.629Z,21.91
2022-09-20T13:39:08.794Z,22.10
2022-09-20T13:41:36.365Z,22.41
2022-09-20T13:44:03.993Z,22.48
2022-09-20T13:46:33.607Z,22.54
2022-09-20T13:49:12.821Z,22.41
2022-09-20T13:51:39.642Z,22.43
2022-09-20T13:54:32.827Z,22.29
2022-09-20T13:57:03.453Z,22.19
2022-09-20T13:59:40.334Z,22.23
2022-09-20T14:02:19.433Z,22.35
2022-09-20T14:04:46.651Z,22.42
2022-09-20T14:07:15.021Z,22.37
2022-09-20T14:09:41.910Z,22.48
2022-09-20T14:12:12.193Z,22.56
2022-09-20T14:14:39.993Z,22.81
2022-09-20T14:17:09.620Z,22.68
2022-09-20T14:19:41.141Z,22.46
2022-09-20T14:22:22.476Z,22.29
2022-09-20T14:25:13.872Z,22.32
2022-09-20T14:27:40.761Z,22.36
2022-09-20T14:30:31.712Z,22.52
2022-09-20T14:32:59.117Z,22.48
2022-09-20T14:35:27.015Z,22.56
2022-09-20T14:38:01.488Z,22.63
2022-09-20T14:40:31.826Z,22.81
2022-09-20T14:43:06.188Z,22.90
2022-09-20T14:45:35.306Z,22.96
2022-09-20T14:48:10.363Z,23.14
2022-09-20T14:50:44.214Z,23.28
2022-09-20T14:53:10.873Z,23.44
2022-09-20T14:55:54.810Z,23.37
2022-09-20T14:58:21.507Z,23.32
2022-09-20T15:01:15.559Z,23.17
2022-09-20T15:03:42.777Z,22.95
2022-09-20T15:06:13.242Z,22.70
2022-09-20T15:08:45.441Z,22.46
2022-09-20T15:11:18.064Z,22.23
2022-09-20T15:13:45.483Z,22.22
2022-09-20T15:16:14.474Z,22.23
2022-09-20T15:18:43.048Z,22.24
2022-09-20T15:21:11.257Z,21.88
2022-09-20T15:23:39.464Z,21.79
2022-09-20T15:26:07.626Z,21.73
2022-09-20T15:28:34.978Z,21.77
2022-09-20T15:31:02.227Z,21.56
2022-09-20T15:33:30.818Z,21.40
2022-09-20T15:35:57.873Z,21.35
2022-09-20T15:38:26.922Z,21.50
2022-09-20T15:40:54.147Z,21.34
2022-09-20T15:43:24.141Z,21.26
2022-09-20T15:45:55.516Z,21.15
2022-09-20T15:48:24.889Z,21.04
2022-09-20T15:50:58.496Z,20.94
2022-09-20T15:53:25.314Z,21.02
2022-09-20T15:55:52.199Z,21.10
2022-09-20T15:58:18.839Z,21.02
2022-09-20T16:00:45.875Z,21.06
2022-09-20T16:03:12.935Z,20.91
2022-09-20T16:05:39.640Z,20.96
2022-09-20T16:08:06.396Z,20.94
2022-09-20T16:10:33.109Z,20.94
2022-09-20T16:12:59.826Z,21.03
2022-09-20T16:15:26.555Z,21.07
2022-09-20T16:18:11.695Z,20.99
2022-09-20T16:20:38.448Z,20.97
2022-09-20T16:23:05.361Z,20.89
2022-09-20T16:25:32.312Z,20.83
2022-09-20T16:27:59.053Z,20.88
2022-09-20T16:30:26.995Z,20.74
2022-09-20T16:32:53.728Z,20.55
2022-09-20T16:35:20.438Z,20.56
2022-09-20T16:37:48.193Z,20.59
2022-09-20T16:40:15.145Z,20.49
2022-09-20T16:42:52.095Z,20.48
2022-09-20T16:45:19.302Z,20.30
2022-09-20T16:47:46.645Z,20.15
2022-09-20T16:50:13.446Z,20.04
2022-09-20T16:52:40.198Z,20.04
2022-09-20T16:55:07.800Z,20.01
2022-09-20T16:57:36.746Z,20.03
2022-09-20T17:00:04.088Z,19.99
2022-09-20T17:02:30.760Z,20.04
2022-09-20T17:04:57.459Z,20.03
2022-09-20T17:07:24.258Z,19.98
2022-09-20T17:09:51.064Z,19.94
2022-09-20T17:12:21.836Z,19.93
2022-09-20T17:14:48.582Z,19.88
2022-09-20T17:17:15.300Z,19.83
2022-09-20T17:19:42.429Z,19.85
2022-09-20T17:22:09.171Z,19.76
2022-09-20T17:24:35.909Z,19.68
2022-09-20T17:27:04.073Z,19.56
2022-09-20T17:29:30.837Z,19.43
2022-09-20T17:31:59.847Z,19.34
2022-09-20T17:34:27.990Z,19.32
2022-09-20T17:36:55.211Z,19.25
2022-09-20T17:39:22.153Z,19.25
2022-09-20T17:41:50.232Z,19.17
2022-09-20T17:44:17.182Z,19.12
2022-09-20T17:46:45.996Z,19.11
2022-09-20T17:49:16.394Z,19.08
2022-09-20T17:51:49.061Z,19.02
2022-09-20T17:54:16.307Z,18.99
2022-09-20T17:56:45.749Z,18.93
2022-09-20T17:59:14.458Z,18.94
2022-09-20T18:01:41.936Z,18.94
2022-09-20T18:04:09.537Z,18.86
2022-09-20T18:06:50.623Z,18.79
2022-09-20T18:09:20.558Z,18.75
2022-09-20T18:11:49.820Z,18.72
2022-09-20T18:14:27.959Z,18.71
2022-09-20T18:16:57.971Z,18.69
2022-09-20T18:19:25.042Z,18.63
2022-09-20T18:21:51.812Z,18.59
2022-09-20T18:24:18.690Z,18.57
2022-09-20T18:26:45.463Z,18.55
2022-09-20T18:29:14.413Z,18.51
2022-09-20T18:31:44.586Z,18.40
2022-09-20T18:34:18.201Z,18.34
2022-09-20T18:36:54.090Z,18.25
2022-09-20T18:39:25.139Z,18.20
2022-09-20T18:41:53.119Z,18.15
2022-09-20T18:44:21.673Z,18.06
2022-09-20T18:46:49.402Z,18.04
2022-09-20T18:49:16.979Z,18.01
2022-09-20T18:51:45.443Z,17.98
2022-09-20T18:54:12.904Z,17.97
2022-09-20T18:56:44.394Z,17.95
2022-09-20T18:59:25.352Z,17.90
2022-09-20T19:01:58.748Z,17.85
2022-09-20T19:04:37.778Z,17.84
2022-09-20T19:07:13.680Z,17.78
2022-09-20T19:09:49.619Z,17.70
2022-09-20T19:12:23.299Z,17.59
2022-09-20T19:15:04.934Z,17.52
2022-09-20T19:18:04.411Z,17.50
2022-09-20T19:20:41.294Z,17.51
2022-09-20T19:23:49.692Z,17.56
2022-09-20T19:26:19.414Z,17.48
2022-09-20T19:28:47.314Z,17.45
2022-09-20T19:31:22.344Z,17.45
2022-09-20T19:33:49.441Z,17.47
2022-09-20T19:36:17.281Z,17.44
2022-09-20T19:39:07.787Z,17.40
2022-09-20T19:41:44.662Z,17.41
2022-09-20T19:44:30.527Z,17.38
2022-09-20T19:47:10.316Z,17.27
2022-09-20T19:50:03.444Z,17.27
2022-09-20T19:52:30.969Z,17.23
2022-09-20T19:54:57.848Z,17.18
2022-09-20T19:57:46.866Z,17.20
2022-09-20T20:00:21.121Z,17.18
2022-09-20T20:02:48.441Z,17.07
2022-09-20T20:05:20.379Z,17.01
2022-09-20T20:08:16.277Z,16.97
2022-09-20T20:11:09.029Z,16.90
2022-09-20T20:14:03.602Z,16.79
2022-09-20T20:16:45.546Z,16.76
2022-09-20T20:19:30.572Z,16.71
2022-09-20T20:22:29.175Z,16.65
2022-09-20T20:24:56.673Z,16.57
2022-09-20T20:27:28.155Z,16.48
2022-09-20T20:29:55.617Z,16.43
2022-09-20T20:32:22.848Z,16.34
2022-09-20T20:34:49.774Z,16.31
2022-09-20T20:37:18.076Z,16.28
2022-09-20T20:39:45.082Z,16.21
2022-09-20T20:42:12.811Z,16.12
2022-09-20T20:44:40.070Z,16.08
2022-09-20T20:47:07.227Z,16.02
2022-09-20T20:49:34.636Z,16.03
2022-09-20T20:52:04.625Z,16.11
2022-09-20T20:54:32.348Z,16.17
2022-09-20T20:56:59.465Z,16.15
2022-09-20T20:59:26.326Z,16.10
2022-09-20T21:01:53.326Z,15.99
2022-09-20T21:04:21.545Z,15.90
2022-09-20T21:06:48.334Z,15.80
2022-09-20T21:09:15.127Z,15.67
2022-09-20T21:11:44.793Z,15.63
2022-09-20T21:14:12.755Z,15.48
2022-09-20T21:16:42.973Z,15.46
2022-09-20T21:19:14.583Z,15.42
2022-09-20T21:21:43.442Z,15.45
2022-09-20T21:24:12.749Z,15.52
2022-09-20T21:26:40.426Z,15.55
2022-09-20T21:29:10.876Z,15.59
2022-09-20T21:31:45.151Z,15.59
2022-09-20T21:34:15.364Z,15.57
2022-09-20T21:36:42.763Z,15.52
2022-09-20T21:39:09.557Z,15.47
2022-09-20T21:41:37.967Z,15.34
2022-09-20T21:44:06.089Z,15.37
2022-09-20T21:46:40.559Z,15.42
2022-09-20T21:49:10.063Z,15.44
2022-09-20T21:51:38.098Z,15.46
2022-09-20T21:54:05.924Z,15.47
2022-09-20T21:56:35.065Z,15.47
2022-09-20T21:59:04.054Z,15.45
2022-09-20T22:01:34.535Z,15.40
2022-09-20T22:04:06.440Z,15.34
2022-09-20T22:06:36.504Z,15.31
2022-09-20T22:09:09.031Z,15.29
2022-09-20T22:11:39.145Z,15.24
2022-09-20T22:14:07.764Z,15.21
2022-09-20T22:16:37.812Z,15.16
2022-09-20T22:19:06.907Z,15.21
2022-09-20T22:21:36.781Z,15.18
2022-09-20T22:24:05.954Z,15.18
2022-09-20T22:26:38.572Z,15.11
2022-09-20T22:29:06.475Z,15.14
2022-09-20T22:31:35.900Z,15.17
2022-09-20T22:34:05.526Z,15.22
2022-09-20T22:36:35.190Z,15.23
2022-09-20T22:39:03.550Z,15.33
2022-09-20T22:41:30.371Z,15.40
2022-09-20T22:43:57.109Z,15.39
2022-09-20T22:46:26.596Z,15.39
2022-09-20T22:48:53.629Z,15.34
2022-09-20T22:51:23.761Z,15.30
2022-09-20T22:53:52.169Z,15.27
2022-09-20T22:56:29.230Z,15.14
2022-09-20T22:59:00.010Z,15.07
2022-09-20T23:01:29.763Z,14.96
2022-09-20T23:03:59.182Z,14.89
2022-09-20T23:06:29.082Z,14.89
2022-09-20T23:08:58.038Z,14.80
2022-09-20T23:11:25.868Z,14.75
2022-09-20T23:13:57.958Z,14.72
2022-09-20T23:16:30.154Z,14.70
2022-09-20T23:18:58.630Z,14.73
2022-09-20T23:21:26.092Z,14.63
2022-09-20T23:23:58.266Z,14.68
2022-09-20T23:26:26.263Z,14.62
2022-09-20T23:28:58.137Z,14.54
2022-09-20T23:31:25.811Z,14.53
2022-09-20T23:33:57.881Z,14.54
2022-09-20T23:36:26.969Z,14.53
2022-09-20T23:38:54.131Z,14.50
2022-09-20T23:41:22.867Z,14.47
2022-09-20T23:43:49.634Z,14.44
2022-09-20T23:46:18.548Z,14.42
2022-09-20T23:48:45.636Z,14.36
2022-09-20T23:51:17.600Z,14.32
2022-09-20T23:53:44.919Z,14.31
2022-09-20T23:56:12.539Z,14.32
2022-09-20T23:58:40.600Z,14.29
